Time;durP1;ratioP1;P1;durP2;ratioP2;P2;SDS_P1;SDS_P2;PMS_P1;PMS_P2;Temp;Humidity;BMP_temperature;BMP_pressure;BME280_temperature;BME280_humidity;BME280_pressure;Samples;Min_cycle;Max_cycle;Signal;HPM_P1;HPM_P2
2024/03/17 00:01:11;;;;;;;7.73;6.90;;;6.30;99.90;;;;;;5053802;28;20291;-72
2024/03/17 00:03:38;;;;;;;8.55;7.60;;;6.40;99.90;;;;;;5099905;28;21070;-72
2024/03/17 00:06:05;;;;;;;12.30;8.57;;;6.50;99.90;;;;;;5087406;28;20193;-72
2024/03/17 00:08:32;;;;;;;11.05;8.43;;;6.60;99.90;;;;;;5018594;28;20283;-72
2024/03/17 00:10:58;;;;;;;8.70;7.53;;;6.60;99.90;;;;;;5016765;28;20216;-73
2024/03/17 00:13:26;;;;;;;10.30;8.45;;;6.60;99.90;;;;;;5025426;28;20650;-72
2024/03/17 00:15:51;;;;;;;9.30;8.27;;;6.50;99.90;;;;;;5034441;28;20303;-72
2024/03/17 00:18:18;;;;;;;8.30;7.50;;;6.40;99.90;;;;;;5019165;28;20730;-73
2024/03/17 00:20:44;;;;;;;8.82;7.38;;;6.50;99.90;;;;;;5019649;28;20193;-73
2024/03/17 00:23:12;;;;;;;8.70;7.63;;;6.40;99.90;;;;;;5015656;28;20654;-74
2024/03/17 00:25:39;;;;;;;8.35;6.47;;;6.50;99.90;;;;;;5017270;28;20201;-71
2024/03/17 00:28:06;;;;;;;8.20;6.70;;;6.40;99.90;;;;;;5017122;28;20202;-74
2024/03/17 00:30:32;;;;;;;8.80;7.00;;;6.40;99.90;;;;;;5019553;28;20202;-72
2024/03/17 00:32:59;;;;;;;7.97;6.90;;;6.40;99.90;;;;;;5020772;28;20649;-72
2024/03/17 00:35:25;;;;;;;8.90;7.10;;;6.40;99.90;;;;;;5020319;28;20656;-72
2024/03/17 00:37:53;;;;;;;8.73;7.30;;;6.30;99.90;;;;;;5019563;28;20634;-73
2024/03/17 00:40:20;;;;;;;8.68;7.40;;;6.50;99.90;;;;;;5023819;28;20298;-72
2024/03/17 00:42:47;;;;;;;9.50;8.60;;;6.40;99.90;;;;;;5021213;28;20200;-72
2024/03/17 00:45:13;;;;;;;8.52;7.72;;;6.30;99.90;;;;;;5020735;28;20203;-74
2024/03/17 00:47:40;;;;;;;9.00;7.30;;;6.30;99.90;;;;;;5019881;28;20192;-71
2024/03/17 00:50:08;;;;;;;11.88;8.63;;;6.20;99.90;;;;;;5053457;27;20627;-72
2024/03/17 00:52:35;;;;;;;9.85;7.75;;;6.20;99.90;;;;;;5041062;28;20615;-72
2024/03/17 00:55:01;;;;;;;9.48;8.10;;;6.10;99.90;;;;;;5040603;28;20237;-72
2024/03/17 00:57:29;;;;;;;9.80;7.40;;;6.20;99.90;;;;;;5039750;28;20219;-72
2024/03/17 00:59:56;;;;;;;11.52;8.35;;;6.20;99.90;;;;;;5041171;28;20549;-72
2024/03/17 01:02:23;;;;;;;9.00;7.85;;;6.40;99.90;;;;;;5037342;28;20201;-72
2024/03/17 01:04:49;;;;;;;10.95;8.57;;;6.40;99.90;;;;;;5036663;28;20290;-72
2024/03/17 01:07:15;;;;;;;10.20;9.00;;;6.50;99.90;;;;;;5040735;28;20634;-72
2024/03/17 01:09:41;;;;;;;8.27;7.45;;;6.50;99.90;;;;;;5050783;27;20279;-72
2024/03/17 01:12:08;;;;;;;12.80;8.47;;;6.30;99.90;;;;;;5050072;27;20226;-72
2024/03/17 01:14:36;;;;;;;9.63;7.75;;;6.30;99.90;;;;;;5046054;27;20211;-72
2024/03/17 01:17:04;;;;;;;10.40;8.65;;;6.30;99.90;;;;;;5054208;27;20226;-72
2024/03/17 01:19:31;;;;;;;10.10;6.82;;;6.30;99.90;;;;;;5040783;28;20201;-72
2024/03/17 01:21:58;;;;;;;8.95;6.55;;;6.40;99.90;;;;;;5039064;27;20719;-72
2024/03/17 01:24:24;;;;;;;7.47;6.60;;;6.50;99.90;;;;;;5036029;28;20689;-72
2024/03/17 01:26:53;;;;;;;10.88;7.20;;;6.40;99.90;;;;;;5038470;27;20626;-72
2024/03/17 01:29:18;;;;;;;12.38;6.90;;;6.40;99.90;;;;;;5038124;28;20752;-72
2024/03/17 01:31:46;;;;;;;8.63;7.30;;;6.40;99.90;;;;;;5035330;28;20198;-72
2024/03/17 01:34:12;;;;;;;9.20;6.93;;;6.40;99.90;;;;;;5038627;27;20219;-72
2024/03/17 01:36:39;;;;;;;10.80;7.83;;;6.40;99.90;;;;;;5032316;28;20660;-72
2024/03/17 01:39:05;;;;;;;7.57;6.35;;;6.40;99.90;;;;;;5031170;28;20206;-72
2024/03/17 01:41:32;;;;;;;9.60;7.63;;;6.40;99.90;;;;;;5013191;28;20293;-72
2024/03/17 01:43:58;;;;;;;8.13;7.05;;;6.40;99.90;;;;;;5019736;28;20200;-72
2024/03/17 01:46:26;;;;;;;7.20;6.35;;;6.40;99.90;;;;;;5019620;28;20188;-72
2024/03/17 01:48:53;;;;;;;7.82;6.53;;;6.40;99.90;;;;;;5020311;28;20693;-73
2024/03/17 01:51:20;;;;;;;9.60;7.93;;;6.40;99.90;;;;;;5061861;27;20681;-72
2024/03/17 01:53:47;;;;;;;9.95;6.85;;;6.50;99.90;;;;;;5049339;27;20828;-72
2024/03/17 01:56:17;;;;;;;9.77;6.65;;;6.50;99.90;;;;;;5045388;28;20293;-72
2024/03/17 01:58:44;;;;;;;10.63;7.68;;;6.50;99.90;;;;;;5117787;27;20236;-72
2024/03/17 02:01:14;;;;;;;6.50;5.90;;;6.60;99.90;;;;;;5079032;27;20205;-72
2024/03/17 02:03:40;;;;;;;7.57;6.80;;;6.60;99.90;;;;;;5080196;27;20658;-72
2024/03/17 02:06:09;;;;;;;7.93;6.95;;;6.60;99.90;;;;;;5117026;27;20610;-72
2024/03/17 02:08:47;;;;;;;8.93;7.27;;;6.70;99.90;;;;;;5046235;28;20202;-72
2024/03/17 02:11:25;;;;;;;7.50;6.63;;;6.60;99.90;;;;;;5007463;28;20620;-72
2024/03/17 02:13:52;;;;;;;9.90;6.20;;;6.70;99.90;;;;;;5041813;28;20679;-72
2024/03/17 02:16:19;;;;;;;6.40;5.80;;;6.60;99.90;;;;;;5100171;27;20638;-72
2024/03/17 02:18:46;;;;;;;6.77;5.73;;;6.60;99.90;;;;;;5095844;27;20673;-72
2024/03/17 02:21:16;;;;;;;7.07;6.38;;;6.70;99.90;;;;;;5041543;28;21057;-72
2024/03/17 02:23:43;;;;;;;7.60;6.80;;;6.70;99.90;;;;;;5026405;28;20201;-72
2024/03/17 02:26:12;;;;;;;9.00;6.95;;;6.70;99.90;;;;;;5045477;28;20618;-72
2024/03/17 02:28:40;;;;;;;7.30;6.60;;;6.70;99.90;;;;;;5109746;27;20765;-72
2024/03/17 02:31:11;;;;;;;8.27;6.67;;;6.70;99.90;;;;;;5085822;27;21328;-72
2024/03/17 02:33:38;;;;;;;8.77;6.73;;;6.80;99.90;;;;;;5073389;27;21205;-72
2024/03/17 02:36:07;;;;;;;9.20;7.93;;;6.80;99.90;;;;;;5123195;27;20643;-72
2024/03/17 02:41:22;;;;;;;8.23;6.53;;;6.80;99.90;;;;;;5007006;28;20619;-72
2024/03/17 02:43:49;;;;;;;7.53;6.83;;;6.80;99.90;;;;;;5038370;28;20622;-72
2024/03/17 02:46:19;;;;;;;9.00;7.53;;;6.90;99.90;;;;;;5091941;27;20663;-72
2024/03/17 02:48:47;;;;;;;9.10;7.00;;;6.90;99.90;;;;;;5101380;27;20634;-73
2024/03/17 02:51:15;;;;;;;10.93;7.63;;;6.80;99.90;;;;;;5031538;28;20647;-71
2024/03/17 02:53:43;;;;;;;8.40;7.60;;;6.80;99.90;;;;;;5031403;28;20662;-72
2024/03/17 02:56:10;;;;;;;7.73;6.80;;;6.90;99.90;;;;;;5043658;28;20753;-72
2024/03/17 02:58:41;;;;;;;8.57;7.50;;;6.90;99.90;;;;;;5102105;27;20714;-72
2024/03/17 03:01:09;;;;;;;8.90;7.53;;;6.90;99.90;;;;;;5091008;27;20969;-72
2024/03/17 03:03:37;;;;;;;9.07;7.67;;;6.80;99.90;;;;;;5065466;27;20654;-72
2024/03/17 03:06:08;;;;;;;11.67;6.70;;;6.80;99.90;;;;;;5129533;27;20606;-72
2024/03/17 03:08:36;;;;;;;9.67;7.33;;;6.80;99.90;;;;;;5045550;28;20746;-72
2024/03/17 03:11:04;;;;;;;8.60;6.83;;;6.80;99.90;;;;;;5114137;27;20615;-72
2024/03/17 03:13:31;;;;;;;9.10;7.70;;;6.70;99.90;;;;;;5079936;27;21186;-72
2024/03/17 03:15:59;;;;;;;10.60;8.07;;;6.60;99.90;;;;;;5075187;27;21054;-72
2024/03/17 03:18:27;;;;;;;8.70;7.80;;;6.60;99.90;;;;;;5118257;27;20637;-72
2024/03/17 03:20:55;;;;;;;12.70;6.03;;;6.60;99.90;;;;;;5046402;28;20978;-72
2024/03/17 03:23:25;;;;;;;7.57;6.73;;;6.60;99.90;;;;;;5124885;28;20672;-72
2024/03/17 03:25:56;;;;;;;9.13;7.13;;;6.50;99.90;;;;;;5052878;28;20719;-72
2024/03/17 03:28:24;;;;;;;8.43;6.97;;;6.40;99.90;;;;;;5033922;28;21179;-72
2024/03/17 03:30:52;;;;;;;8.20;7.00;;;6.50;99.90;;;;;;5031699;28;20622;-72
2024/03/17 03:33:22;;;;;;;10.65;7.75;;;6.40;99.90;;;;;;5049973;28;20636;-72
2024/03/17 03:35:50;;;;;;;8.97;7.00;;;6.40;99.90;;;;;;5129600;28;20229;-72
2024/03/17 03:38:19;;;;;;;7.90;6.70;;;6.40;99.90;;;;;;5049972;28;20619;-72
2024/03/17 03:40:48;;;;;;;9.17;7.10;;;6.40;99.90;;;;;;5038383;28;20987;-72
2024/03/17 03:43:16;;;;;;;8.07;7.00;;;6.40;99.90;;;;;;5080618;28;20683;-72
2024/03/17 03:45:45;;;;;;;8.83;7.50;;;6.30;99.90;;;;;;5113243;28;20621;-71
2024/03/17 03:48:13;;;;;;;7.82;6.25;;;6.30;99.90;;;;;;5045157;28;20998;-72
2024/03/17 03:50:44;;;;;;;21.27;8.30;;;6.30;99.90;;;;;;5066919;28;20627;-72
2024/03/17 03:53:12;;;;;;;7.67;6.37;;;6.20;99.90;;;;;;5050887;28;20619;-71
2024/03/17 03:55:41;;;;;;;8.80;6.80;;;6.20;99.90;;;;;;5036371;28;20967;-71
2024/03/17 03:58:08;;;;;;;10.98;8.70;;;6.10;99.90;;;;;;5073045;28;20201;-72
2024/03/17 04:00:35;;;;;;;8.63;7.30;;;6.10;99.90;;;;;;5121352;28;20249;-72
2024/03/17 04:03:02;;;;;;;9.88;8.55;;;6.30;99.90;;;;;;5044938;28;20574;-72
2024/03/17 04:05:29;;;;;;;10.80;8.50;;;6.30;99.90;;;;;;5118293;28;20223;-72
2024/03/17 04:07:57;;;;;;;8.18;7.28;;;6.30;99.90;;;;;;5076558;28;20287;-72
2024/03/17 04:10:24;;;;;;;9.85;8.02;;;6.30;99.90;;;;;;5084004;27;20213;-72
2024/03/17 04:12:51;;;;;;;10.63;8.73;;;6.30;99.90;;;;;;5118065;27;20228;-72
2024/03/17 04:15:19;;;;;;;8.95;8.02;;;6.40;99.90;;;;;;5048585;28;20204;-72
2024/03/17 04:17:46;;;;;;;9.75;8.75;;;6.30;99.90;;;;;;5128882;27;20261;-72
2024/03/17 04:20:13;;;;;;;9.32;8.30;;;6.30;99.90;;;;;;5071836;27;20210;-72
2024/03/17 04:22:41;;;;;;;10.73;8.88;;;6.20;99.90;;;;;;5090124;27;20213;-72
2024/03/17 04:25:09;;;;;;;10.68;9.65;;;6.30;99.90;;;;;;5079758;27;20228;-72
2024/03/17 04:27:36;;;;;;;11.38;8.70;;;6.30;99.90;;;;;;5050878;27;20196;-72
2024/03/17 04:30:05;;;;;;;12.65;9.88;;;6.30;99.90;;;;;;5100230;27;20196;-72
2024/03/17 04:32:33;;;;;;;10.43;9.00;;;6.40;99.90;;;;;;5087559;27;20209;-72
2024/03/17 04:34:59;;;;;;;12.35;9.65;;;6.40;99.90;;;;;;5057437;27;20200;-72
2024/03/17 04:37:26;;;;;;;10.57;8.38;;;6.40;99.90;;;;;;5077003;27;20213;-72
2024/03/17 04:39:52;;;;;;;10.38;9.35;;;6.40;99.90;;;;;;5034776;27;20284;-72
2024/03/17 04:42:21;;;;;;;14.75;12.60;;;6.30;99.90;;;;;;5048597;28;20257;-72
2024/03/17 04:44:47;;;;;;;11.43;9.52;;;6.30;99.90;;;;;;5124648;27;20190;-72
2024/03/17 04:47:14;;;;;;;14.88;10.25;;;6.40;99.90;;;;;;5075296;27;20206;-72
2024/03/17 04:49:43;;;;;;;11.17;9.70;;;6.40;99.90;;;;;;5067283;27;20201;-72
2024/03/17 04:52:11;;;;;;;10.40;9.05;;;6.40;99.90;;;;;;5040025;27;20622;-72
2024/03/17 04:54:38;;;;;;;11.43;9.30;;;6.30;99.90;;;;;;5027972;28;20219;-72
2024/03/17 04:57:05;;;;;;;11.90;10.40;;;6.30;99.90;;;;;;5131123;27;20213;-72
2024/03/17 04:59:35;;;;;;;11.33;9.60;;;6.30;99.90;;;;;;5066765;27;20717;-72
2024/03/17 05:02:03;;;;;;;12.75;9.70;;;6.40;99.90;;;;;;5094975;27;20626;-72
2024/03/17 05:04:30;;;;;;;14.80;10.20;;;6.30;99.90;;;;;;5105161;27;20195;-72
2024/03/17 05:06:57;;;;;;;10.70;9.15;;;6.20;99.90;;;;;;5054792;27;20556;-71
2024/03/17 05:09:24;;;;;;;11.60;10.40;;;6.20;99.90;;;;;;5132057;27;20205;-72
2024/03/17 05:11:52;;;;;;;14.50;11.53;;;6.20;99.90;;;;;;5058138;27;20199;-72
2024/03/17 05:14:19;;;;;;;13.45;11.68;;;6.10;99.90;;;;;;5102152;27;20626;-71
2024/03/17 05:16:49;;;;;;;12.35;10.25;;;6.10;99.90;;;;;;5097383;27;20226;-72
2024/03/17 05:19:17;;;;;;;13.48;11.20;;;6.10;99.90;;;;;;5063962;27;20734;-71
2024/03/17 05:21:44;;;;;;;16.60;11.02;;;5.90;99.90;;;;;;5131753;27;20560;-72
2024/03/17 05:24:12;;;;;;;18.55;13.27;;;6.00;99.90;;;;;;5045904;27;20592;-72
2024/03/17 05:26:38;;;;;;;14.70;11.88;;;6.10;99.90;;;;;;5041825;28;20238;-72
2024/03/17 05:29:05;;;;;;;12.95;11.02;;;6.10;99.90;;;;;;5090823;27;20209;-72
2024/03/17 05:31:32;;;;;;;17.80;13.13;;;6.10;99.90;;;;;;5108840;27;20230;-72
2024/03/17 05:34:00;;;;;;;17.52;13.48;;;6.20;99.90;;;;;;5050300;27;20215;-72
2024/03/17 05:36:32;;;;;;;15.50;12.93;;;6.30;99.90;;;;;;5131285;27;20218;-72
2024/03/17 05:38:59;;;;;;;15.63;12.93;;;6.20;99.90;;;;;;5049767;27;20288;-72
2024/03/17 05:41:26;;;;;;;16.33;12.55;;;6.20;99.90;;;;;;5039898;28;20196;-72
2024/03/17 05:43:53;;;;;;;16.02;12.68;;;6.20;99.90;;;;;;5079659;27;20202;-71
2024/03/17 05:46:19;;;;;;;16.30;12.95;;;6.20;99.90;;;;;;5118747;27;20192;-72
2024/03/17 05:48:46;;;;;;;16.13;12.20;;;6.20;99.90;;;;;;5046748;28;20211;-72
2024/03/17 05:51:16;;;;;;;14.80;12.80;;;6.20;99.90;;;;;;5041394;27;20631;-72
2024/03/17 05:53:44;;;;;;;16.83;14.25;;;6.10;99.90;;;;;;5040661;28;20208;-71
2024/03/17 05:56:12;;;;;;;16.95;12.88;;;6.10;99.90;;;;;;5087550;27;20198;-72
2024/03/17 05:58:39;;;;;;;18.40;12.98;;;6.20;99.90;;;;;;5108825;27;20204;-72
2024/03/17 06:01:07;;;;;;;15.88;14.05;;;6.10;99.90;;;;;;5049124;27;20214;-72
2024/03/17 06:03:35;;;;;;;16.67;12.83;;;6.10;99.90;;;;;;5130819;27;20215;-72
2024/03/17 06:06:03;;;;;;;15.77;14.00;;;6.10;99.90;;;;;;5061753;27;20625;-72
2024/03/17 06:08:31;;;;;;;15.82;13.18;;;6.20;99.90;;;;;;5095772;27;20647;-72
2024/03/17 06:11:00;;;;;;;15.65;11.20;;;6.10;99.90;;;;;;5100308;27;20226;-72
2024/03/17 06:13:28;;;;;;;14.98;13.02;;;6.20;99.90;;;;;;5058173;27;20205;-72
2024/03/17 06:15:55;;;;;;;17.52;12.73;;;6.20;99.90;;;;;;5130500;27;20323;-72
2024/03/17 06:18:23;;;;;;;17.10;13.93;;;6.20;99.90;;;;;;5052327;27;20232;-72
2024/03/17 06:20:50;;;;;;;16.65;11.93;;;6.30;99.90;;;;;;5105676;27;20204;-72
2024/03/17 06:23:17;;;;;;;16.27;12.90;;;6.40;99.90;;;;;;5091548;27;20199;-72
2024/03/17 06:25:46;;;;;;;15.63;13.18;;;6.40;99.90;;;;;;5034798;28;20717;-72
2024/03/17 06:28:14;;;;;;;16.58;13.48;;;6.50;99.90;;;;;;5047351;27;20204;-72
2024/03/17 06:30:41;;;;;;;15.65;13.45;;;6.60;99.90;;;;;;5129938;27;20573;-72
2024/03/17 06:33:10;;;;;;;18.13;13.43;;;6.60;99.90;;;;;;5062562;27;20208;-72
2024/03/17 06:35:37;;;;;;;17.45;14.15;;;6.70;99.90;;;;;;5095023;27;20209;-72
2024/03/17 06:38:04;;;;;;;16.60;13.60;;;6.80;99.90;;;;;;5100307;27;20568;-73
2024/03/17 06:40:31;;;;;;;15.43;13.40;;;6.90;99.90;;;;;;5028298;28;20665;-72
2024/03/17 06:42:59;;;;;;;15.43;12.00;;;6.80;99.90;;;;;;5046414;28;20622;-72
2024/03/17 06:45:26;;;;;;;14.70;13.20;;;7.10;99.90;;;;;;5121120;27;21175;-72
2024/03/17 06:47:55;;;;;;;17.07;14.83;;;7.20;99.90;;;;;;5073445;27;21027;-72
2024/03/17 06:50:21;;;;;;;15.05;13.45;;;7.40;99.90;;;;;;5046450;28;20685;-72
2024/03/17 06:52:48;;;;;;;16.03;13.33;;;7.40;99.90;;;;;;5042277;28;20207;-72
2024/03/17 06:55:15;;;;;;;16.53;13.40;;;7.50;99.90;;;;;;5045949;28;20615;-72
2024/03/17 06:57:44;;;;;;;18.10;14.50;;;7.50;99.90;;;;;;5127222;27;20654;-72
2024/03/17 07:00:16;;;;;;;16.00;14.30;;;7.70;99.90;;;;;;5066520;27;20626;-72
2024/03/17 07:02:44;;;;;;;17.43;14.80;;;7.70;99.90;;;;;;5092530;27;20626;-72
2024/03/17 07:05:15;;;;;;;14.30;12.43;;;7.70;99.90;;;;;;5102696;27;20626;-72
2024/03/17 07:07:42;;;;;;;14.90;12.27;;;7.70;99.90;;;;;;5055350;27;20644;-72
2024/03/17 07:10:11;;;;;;;17.30;12.30;;;7.80;99.90;;;;;;5130037;27;20615;-72
2024/03/17 07:12:37;;;;;;;16.53;14.73;;;8.00;99.90;;;;;;5053760;27;20664;-72
2024/03/17 07:15:05;;;;;;;16.97;13.97;;;8.20;99.90;;;;;;5102862;27;20625;-72
2024/03/17 07:17:33;;;;;;;16.53;14.23;;;8.40;99.90;;;;;;5091378;27;20680;-72
2024/03/17 07:20:00;;;;;;;17.40;15.17;;;8.50;99.90;;;;;;5064006;28;20726;-72
2024/03/17 07:22:28;;;;;;;16.90;14.73;;;8.60;99.90;;;;;;5129778;28;20636;-72
2024/03/17 07:24:56;;;;;;;19.40;15.57;;;8.70;99.90;;;;;;5015747;28;20630;-72
2024/03/17 07:27:23;;;;;;;16.73;13.30;;;8.70;99.90;;;;;;5040499;28;21008;-72
2024/03/17 07:29:50;;;;;;;17.20;14.77;;;8.80;99.90;;;;;;5090952;28;20618;-72
2024/03/17 07:32:17;;;;;;;20.07;17.20;;;8.80;99.90;;;;;;5103730;28;20630;-72
2024/03/17 07:34:45;;;;;;;20.43;18.33;;;8.90;99.90;;;;;;5052106;28;21216;-72
2024/03/17 07:37:12;;;;;;;21.40;19.10;;;8.90;99.90;;;;;;5129277;28;20660;-72
2024/03/17 07:39:38;;;;;;;19.37;17.47;;;9.00;99.90;;;;;;5043351;28;20645;-72
2024/03/17 07:42:07;;;;;;;21.17;17.27;;;9.20;99.90;;;;;;5037492;28;20618;-72
2024/03/17 07:44:34;;;;;;;19.83;17.93;;;9.20;99.90;;;;;;5082177;27;21067;-72
2024/03/17 07:47:01;;;;;;;18.00;16.20;;;9.20;99.90;;;;;;5118955;27;20717;-72
2024/03/17 07:49:27;;;;;;;20.10;16.63;;;9.40;99.90;;;;;;5047815;28;20631;-72
2024/03/17 07:51:57;;;;;;;18.93;16.87;;;9.60;99.90;;;;;;5048053;28;20970;-72
2024/03/17 07:54:24;;;;;;;22.00;19.70;;;9.80;99.90;;;;;;5037697;28;20691;-72
2024/03/17 07:56:51;;;;;;;21.03;18.80;;;9.90;99.90;;;;;;5088963;27;21247;-72
2024/03/17 07:59:18;;;;;;;22.43;17.50;;;10.00;99.90;;;;;;5112614;27;20848;-72
2024/03/17 08:01:45;;;;;;;20.07;17.87;;;10.00;99.90;;;;;;5049546;28;20718;-72
2024/03/17 08:04:12;;;;;;;16.37;14.70;;;10.00;99.90;;;;;;5133553;27;20658;-72
2024/03/17 08:06:40;;;;;;;14.53;12.67;;;10.00;99.90;;;;;;5065835;27;20633;-72
2024/03/17 08:09:08;;;;;;;14.37;12.87;;;10.10;99.90;;;;;;5095724;27;20725;-72
2024/03/17 08:11:35;;;;;;;14.57;12.43;;;10.00;99.90;;;;;;5104946;27;21037;-72
2024/03/17 08:14:02;;;;;;;11.57;10.47;;;10.00;99.90;;;;;;5057233;27;21248;-72
2024/03/17 08:16:30;;;;;;;14.20;11.07;;;10.00;99.90;;;;;;5133279;27;20965;-72
2024/03/17 08:18:56;;;;;;;9.87;8.87;;;10.00;99.90;;;;;;5058276;27;20650;-72
2024/03/17 08:21:24;;;;;;;9.63;8.63;;;10.10;99.90;;;;;;5103412;27;20689;-72
2024/03/17 08:23:51;;;;;;;9.20;8.27;;;10.20;99.90;;;;;;5096639;27;20645;-72
2024/03/17 08:26:19;;;;;;;10.03;8.20;;;10.30;99.90;;;;;;5031895;28;21167;-72
2024/03/17 08:28:47;;;;;;;10.43;9.37;;;10.40;99.90;;;;;;5048250;28;20622;-71
2024/03/17 08:31:15;;;;;;;9.10;8.30;;;10.30;99.90;;;;;;5131153;27;20673;-71
2024/03/17 08:33:42;;;;;;;9.70;8.77;;;10.40;99.90;;;;;;5069652;27;21219;-71
2024/03/17 08:36:10;;;;;;;8.20;7.40;;;10.40;99.90;;;;;;5090897;27;20615;-72
2024/03/17 08:38:38;;;;;;;6.90;6.30;;;10.50;99.90;;;;;;5100991;27;20735;-72
2024/03/17 08:41:06;;;;;;;7.67;6.97;;;10.50;99.90;;;;;;5029597;28;20637;-72
2024/03/17 08:43:35;;;;;;;7.30;6.60;;;10.50;99.90;;;;;;5048549;28;20629;-72
2024/03/17 08:46:05;;;;;;;7.10;6.40;;;10.60;99.90;;;;;;5120766;27;20734;-72
2024/03/17 08:48:33;;;;;;;7.43;6.83;;;10.60;99.90;;;;;;5077561;27;20689;-72
2024/03/17 08:51:01;;;;;;;12.20;8.13;;;10.70;99.90;;;;;;5041915;28;21186;-72
2024/03/17 08:53:28;;;;;;;9.27;7.47;;;10.70;99.90;;;;;;5038312;28;20627;-72
2024/03/17 08:55:56;;;;;;;10.27;7.70;;;10.80;99.90;;;;;;5048372;28;20614;-72
2024/03/17 08:58:23;;;;;;;8.93;6.90;;;10.80;99.90;;;;;;5130113;27;20648;-72
2024/03/17 09:00:52;;;;;;;7.27;6.43;;;10.90;99.90;;;;;;5069940;27;20624;-72
2024/03/17 09:03:19;;;;;;;6.83;6.23;;;10.90;99.90;;;;;;5090619;27;20615;-72
2024/03/17 09:05:47;;;;;;;5.83;5.17;;;11.10;99.90;;;;;;5107781;27;20624;-72
2024/03/17 09:08:20;;;;;;;7.67;6.63;;;11.10;99.90;;;;;;5052441;27;20729;-72
2024/03/17 09:10:47;;;;;;;7.00;6.33;;;11.20;99.90;;;;;;5132667;27;20620;-72
2024/03/17 09:13:15;;;;;;;6.50;5.90;;;11.30;99.90;;;;;;5057544;27;20979;-72
2024/03/17 09:15:50;;;;;;;6.83;5.40;;;11.30;99.90;;;;;;5102908;27;20622;-72
2024/03/17 09:18:18;;;;;;;6.30;5.70;;;11.30;99.90;;;;;;5091879;27;21054;-72
2024/03/17 09:20:45;;;;;;;5.87;5.30;;;11.40;99.90;;;;;;5068953;27;20962;-72
2024/03/17 09:23:12;;;;;;;6.03;5.43;;;11.60;99.80;;;;;;5130540;27;20666;-72
2024/03/17 09:25:39;;;;;;;4.87;4.33;;;11.70;99.40;;;;;;5031887;28;20617;-72
2024/03/17 09:28:06;;;;;;;5.70;4.30;;;11.70;97.90;;;;;;5042415;28;20633;-72
2024/03/17 09:30:33;;;;;;;4.30;3.90;;;11.80;97.20;;;;;;5094201;27;20632;-72
2024/03/17 09:33:00;;;;;;;5.03;4.53;;;11.80;96.90;;;;;;5104657;27;20634;-72
2024/03/17 09:35:28;;;;;;;5.50;5.00;;;11.80;96.30;;;;;;5055300;27;20960;-74
2024/03/17 09:37:55;;;;;;;3.50;3.20;;;11.80;96.60;;;;;;5131186;27;20659;-72
2024/03/17 09:40:22;;;;;;;4.43;3.90;;;11.80;95.40;;;;;;5044618;28;20629;-72
2024/03/17 09:42:49;;;;;;;6.30;3.60;;;12.00;94.50;;;;;;5100936;27;20621;-72
2024/03/17 09:45:17;;;;;;;4.33;3.77;;;11.90;93.20;;;;;;5097833;27;20646;-72
2024/03/17 09:47:44;;;;;;;4.13;3.70;;;12.00;94.10;;;;;;5061342;27;20608;-72
2024/03/17 09:50:15;;;;;;;3.50;3.20;;;12.00;92.90;;;;;;5092557;27;20622;-72
2024/03/17 09:52:45;;;;;;;4.23;3.43;;;12.00;92.40;;;;;;5095487;27;20642;-72
2024/03/17 09:55:17;;;;;;;4.10;3.53;;;12.10;90.60;;;;;;5042279;28;20633;-72
2024/03/17 09:57:44;;;;;;;4.13;3.73;;;12.10;91.80;;;;;;5094296;27;20658;-72
2024/03/17 10:00:13;;;;;;;3.40;3.00;;;12.10;92.30;;;;;;5103547;27;20613;-72
2024/03/17 10:02:44;;;;;;;4.43;3.83;;;12.10;92.90;;;;;;5057203;27;20979;-72
2024/03/17 10:05:20;;;;;;;4.50;3.37;;;12.10;93.20;;;;;;5129812;27;20960;-72
2024/03/17 10:07:49;;;;;;;4.43;3.80;;;12.10;93.00;;;;;;5047840;27;20626;-72
2024/03/17 10:10:17;;;;;;;4.47;3.67;;;12.20;92.00;;;;;;5110813;27;20636;-72
2024/03/17 10:12:44;;;;;;;3.50;3.20;;;12.30;91.70;;;;;;5086110;27;21187;-72
2024/03/17 10:15:12;;;;;;;6.97;3.73;;;12.40;91.80;;;;;;5072468;27;20615;-72
2024/03/17 10:17:39;;;;;;;4.10;3.60;;;12.30;91.30;;;;;;5123608;27;20645;-72
2024/03/17 10:20:15;;;;;;;5.80;3.93;;;12.40;91.10;;;;;;5046309;28;20709;-72
2024/03/17 10:22:58;;;;;;;4.93;3.63;;;12.30;91.30;;;;;;5123636;27;20757;-72
2024/03/17 10:25:25;;;;;;;4.30;3.90;;;12.50;92.10;;;;;;5050854;27;20981;-72
2024/03/17 10:27:52;;;;;;;4.23;3.83;;;12.50;91.80;;;;;;5037118;28;21232;-72
2024/03/17 10:30:21;;;;;;;5.60;3.03;;;12.50;92.20;;;;;;5073258;27;20614;-72
2024/03/17 10:32:53;;;;;;;4.47;3.60;;;12.50;91.30;;;;;;5121674;27;21236;-72
2024/03/17 10:35:28;;;;;;;4.27;3.87;;;12.60;91.50;;;;;;5046727;28;21071;-73
2024/03/17 10:37:58;;;;;;;4.17;3.30;;;12.70;91.10;;;;;;5126142;27;20654;-73
2024/03/17 10:40:26;;;;;;;3.40;3.10;;;12.70;91.00;;;;;;5036671;28;21288;-72
2024/03/17 10:42:53;;;;;;;3.50;2.80;;;12.70;91.10;;;;;;5090778;27;21169;-72
2024/03/17 10:45:21;;;;;;;3.00;2.70;;;12.80;91.60;;;;;;5105438;27;20628;-72
2024/03/17 10:47:49;;;;;;;4.13;3.47;;;12.90;91.40;;;;;;5051559;27;20630;-72
2024/03/17 10:50:19;;;;;;;4.17;3.77;;;13.00;90.70;;;;;;5087636;27;20623;-72
2024/03/17 10:52:49;;;;;;;3.73;3.43;;;13.00;90.90;;;;;;5079836;27;20642;-72
2024/03/17 10:55:23;;;;;;;3.83;3.40;;;12.90;90.40;;;;;;5039461;28;20627;-72
2024/03/17 10:57:52;;;;;;;4.40;3.70;;;12.90;90.20;;;;;;5085494;27;20709;-72
2024/03/17 11:00:21;;;;;;;3.50;3.03;;;12.90;90.90;;;;;;5109417;27;21084;-72
2024/03/17 11:02:49;;;;;;;3.50;3.20;;;13.10;90.30;;;;;;5049059;28;20630;-72
2024/03/17 11:05:19;;;;;;;4.93;3.40;;;13.00;90.40;;;;;;5129628;27;21163;-73
2024/03/17 11:07:48;;;;;;;3.57;3.03;;;13.10;90.30;;;;;;5058657;27;21231;-73
2024/03/17 11:10:23;;;;;;;4.57;3.43;;;13.10;90.70;;;;;;5097659;27;20664;-72
2024/03/17 11:12:51;;;;;;;6.03;3.20;;;13.20;91.40;;;;;;5093413;27;20624;-72
2024/03/17 11:15:39;;;;;;;3.47;3.17;;;13.30;91.20;;;;;;5063572;27;20706;-72
2024/03/17 11:18:36;;;;;;;4.50;2.83;;;13.40;90.30;;;;;;5112889;27;20656;-73
2024/03/17 11:21:10;;;;;;;3.67;3.20;;;13.50;90.70;;;;;;5058761;28;20638;-72
2024/03/17 11:23:38;;;;;;;3.70;3.40;;;13.30;90.00;;;;;;5129377;27;21203;-73
2024/03/17 11:26:08;;;;;;;4.50;3.13;;;13.30;90.30;;;;;;5048664;28;20655;-72
2024/03/17 11:28:52;;;;;;;3.27;2.97;;;13.50;91.00;;;;;;5105194;28;21085;-73
2024/03/17 11:31:41;;;;;;;3.20;2.90;;;13.50;89.50;;;;;;5079658;28;20682;-73
2024/03/17 11:34:30;;;;;;;2.73;2.53;;;13.30;90.40;;;;;;5088756;28;20737;-72
2024/03/17 11:36:57;;;;;;;3.00;2.80;;;13.40;91.30;;;;;;5031364;28;20628;-73
2024/03/17 11:40:04;;;;;;;4.27;3.50;;;13.20;90.80;;;;;;5022647;28;20659;-73
2024/03/17 11:42:32;;;;;;;3.03;2.73;;;13.20;90.50;;;;;;5019145;28;21199;-73
2024/03/17 11:45:06;;;;;;;2.90;2.43;;;13.30;90.90;;;;;;5015489;28;20622;-73
2024/03/17 11:47:39;;;;;;;3.00;2.80;;;13.30;90.40;;;;;;5016007;28;20620;-72
2024/03/17 11:50:09;;;;;;;3.03;2.77;;;13.40;90.90;;;;;;5022454;28;21354;-73
2024/03/17 11:52:35;;;;;;;3.13;2.93;;;13.50;90.00;;;;;;5017828;28;20634;-73
2024/03/17 11:55:02;;;;;;;4.00;2.93;;;13.50;90.70;;;;;;5018046;28;20614;-73
2024/03/17 11:57:29;;;;;;;2.93;2.63;;;13.60;91.00;;;;;;5017011;28;20616;-73
2024/03/17 11:59:58;;;;;;;3.90;2.90;;;13.80;90.30;;;;;;5015966;28;21008;-73
2024/03/17 12:02:26;;;;;;;3.90;2.83;;;13.70;91.00;;;;;;5016777;28;21057;-73
2024/03/17 12:04:53;;;;;;;2.37;2.17;;;13.70;90.80;;;;;;5019232;28;20607;-73
2024/03/17 12:07:23;;;;;;;7.23;2.43;;;13.70;90.80;;;;;;5019198;28;20628;-72
2024/03/17 12:09:50;;;;;;;2.83;2.53;;;13.40;87.90;;;;;;5020783;28;21185;-73
2024/03/17 12:12:19;;;;;;;4.90;3.00;;;13.40;88.40;;;;;;5018418;28;20961;-73
2024/03/17 12:14:46;;;;;;;3.93;3.20;;;13.60;90.60;;;;;;5016097;28;20623;-72
2024/03/17 12:17:15;;;;;;;2.90;2.57;;;13.90;90.00;;;;;;5018498;28;20719;-73
2024/03/17 12:19:44;;;;;;;2.77;2.50;;;13.90;89.60;;;;;;5019122;28;21269;-72
2024/03/17 12:22:16;;;;;;;4.80;2.47;;;13.80;89.40;;;;;;5018234;28;20672;-73
2024/03/17 12:24:45;;;;;;;1.97;1.80;;;13.80;87.50;;;;;;5018635;28;20726;-73
2024/03/17 12:27:17;;;;;;;2.47;2.27;;;13.70;87.50;;;;;;5016101;28;20687;-73
2024/03/17 12:29:44;;;;;;;3.53;2.37;;;13.80;90.00;;;;;;5077924;27;20618;-73
2024/03/17 12:32:17;;;;;;;4.53;2.10;;;13.80;88.60;;;;;;5064932;27;20682;-73
2024/03/17 12:34:45;;;;;;;3.23;2.00;;;13.70;88.40;;;;;;5085279;27;21175;-72
2024/03/17 12:37:18;;;;;;;3.87;1.70;;;13.60;89.00;;;;;;5099161;27;20709;-72
2024/03/17 12:39:44;;;;;;;4.50;2.30;;;13.70;90.40;;;;;;5037559;28;20650;-73
2024/03/17 12:42:13;;;;;;;3.40;1.90;;;13.70;90.20;;;;;;5049173;27;20609;-72
2024/03/17 12:44:42;;;;;;;2.23;1.87;;;13.60;89.00;;;;;;5077891;27;20812;-72
2024/03/17 12:47:15;;;;;;;1.40;1.30;;;13.60;87.50;;;;;;5067397;27;20678;-73
2024/03/17 12:49:47;;;;;;;2.63;1.50;;;13.50;86.90;;;;;;5078602;27;21039;-72
2024/03/17 12:52:20;;;;;;;1.57;1.43;;;13.50;86.50;;;;;;5052838;27;20711;-73
2024/03/17 13:00:31;;;;;;;2.73;1.63;;;13.50;86.30;;;;;;5031654;28;20680;-73